createdAt,value
2018-05-02T00:00:01.717Z,56.80
2018-05-02T00:02:30.727Z,57.07
2018-05-02T00:04:59.227Z,57.81
2018-05-02T00:07:27.612Z,55.99
2018-05-02T00:09:56.030Z,56.07
2018-05-02T00:12:24.531Z,56.00
2018-05-02T00:14:52.912Z,56.53
2018-05-02T00:17:21.341Z,57.53
2018-05-02T00:19:49.813Z,56.65
2018-05-02T00:22:18.208Z,56.45
2018-05-02T00:24:46.551Z,57.38
2018-05-02T00:27:14.993Z,57.40
2018-05-02T00:29:43.349Z,56.04
2018-05-02T00:32:11.710Z,57.09
2018-05-02T00:34:40.069Z,57.25
2018-05-02T00:37:08.468Z,56.98
2018-05-02T00:39:36.938Z,57.81
2018-05-02T00:42:05.319Z,57.19
2018-05-02T00:44:33.802Z,57.05
2018-05-02T00:47:02.158Z,56.58
2018-05-02T00:49:30.547Z,57.66
2018-05-02T00:51:58.917Z,55.96
2018-05-02T00:54:27.268Z,57.29
2018-05-02T00:56:55.633Z,56.72
2018-05-02T00:59:24.011Z,56.34
2018-05-02T01:01:52.392Z,55.10
2018-05-02T01:04:20.813Z,56.38
2018-05-02T01:06:49.178Z,55.47
2018-05-02T01:09:17.624Z,56.55
2018-05-02T01:11:46.037Z,56.06
2018-05-02T01:14:14.484Z,58.22
2018-05-02T01:16:42.876Z,57.35
2018-05-02T01:19:11.290Z,56.88
2018-05-02T01:21:39.723Z,57.43
2018-05-02T01:24:08.087Z,55.75
2018-05-02T01:26:36.477Z,56.48
2018-05-02T01:29:04.892Z,56.35
2018-05-02T01:31:33.301Z,56.92
2018-05-02T01:34:01.749Z,57.97
2018-05-02T01:36:30.169Z,57.05
2018-05-02T01:38:58.562Z,56.30
2018-05-02T01:41:26.981Z,57.36
2018-05-02T01:43:55.381Z,58.95
2018-05-02T01:46:23.788Z,57.25
2018-05-02T01:49:03.994Z,57.71
2018-05-02T01:54:07.174Z,58.66
2018-05-02T01:56:35.605Z,58.65
2018-05-02T01:59:03.967Z,58.03
2018-05-02T02:01:32.329Z,58.42
2018-05-02T02:04:00.687Z,57.76
2018-05-02T02:06:29.054Z,56.22
2018-05-02T02:08:57.414Z,59.26
2018-05-02T02:11:25.853Z,57.98
2018-05-02T02:13:54.236Z,59.06
2018-05-02T02:16:22.606Z,58.46
2018-05-02T02:18:50.989Z,58.00
2018-05-02T02:21:19.503Z,58.58
2018-05-02T02:23:47.820Z,58.42
2018-05-02T02:26:16.185Z,58.10
2018-05-02T02:28:44.646Z,58.46
2018-05-02T02:31:13.017Z,59.22
2018-05-02T02:33:41.450Z,58.29
2018-05-02T02:36:09.792Z,57.89
2018-05-02T02:38:38.176Z,59.42
2018-05-02T02:41:06.568Z,59.08
2018-05-02T02:43:35.077Z,59.83
2018-05-02T02:46:03.455Z,58.26
2018-05-02T02:48:31.842Z,58.91
2018-05-02T02:51:00.273Z,60.71
2018-05-02T02:53:28.682Z,59.35
2018-05-02T02:55:57.135Z,58.20
2018-05-02T02:58:25.554Z,58.56
2018-05-02T03:00:54.049Z,61.39
2018-05-02T03:03:22.449Z,58.34
2018-05-02T03:05:50.835Z,59.04
2018-05-02T03:08:19.274Z,59.87
2018-05-02T03:10:47.689Z,59.70
2018-05-02T03:13:16.208Z,60.53
2018-05-02T03:15:44.618Z,58.78
2018-05-02T03:18:13.013Z,59.58
2018-05-02T03:20:41.410Z,58.09
2018-05-02T03:23:09.790Z,58.47
2018-05-02T03:25:38.290Z,59.31
2018-05-02T03:28:06.661Z,58.35
2018-05-02T03:30:35.097Z,59.54
2018-05-02T03:33:03.546Z,59.10
2018-05-02T03:35:31.974Z,60.02
2018-05-02T03:38:00.380Z,58.95
2018-05-02T03:40:29.038Z,58.77
2018-05-02T03:42:57.824Z,60.33
2018-05-02T03:45:26.653Z,59.06
2018-05-02T03:47:55.283Z,59.09
2018-05-02T03:50:24.082Z,58.95
2018-05-02T03:52:52.601Z,59.56
2018-05-02T03:55:21.249Z,59.43
2018-05-02T03:57:49.947Z,60.33
2018-05-02T04:00:30.567Z,60.03
2018-05-02T04:03:10.678Z,58.77
2018-05-02T04:05:51.094Z,58.90
2018-05-02T04:08:19.555Z,59.51
2018-05-02T04:10:47.945Z,59.96
2018-05-02T04:13:16.342Z,58.12
2018-05-02T04:15:44.718Z,56.72
2018-05-02T04:18:13.166Z,57.24
2018-05-02T04:20:41.585Z,56.96
2018-05-02T04:23:10.039Z,57.26
2018-05-02T04:25:38.484Z,57.87
2018-05-02T04:28:06.947Z,60.62
2018-05-02T04:30:35.431Z,59.59
2018-05-02T04:33:03.810Z,59.26
2018-05-02T04:35:32.301Z,59.56
2018-05-02T04:38:00.669Z,59.35
2018-05-02T04:40:29.106Z,58.62
2018-05-02T04:42:57.494Z,58.00
2018-05-02T04:45:25.907Z,57.04
2018-05-02T04:47:54.335Z,57.24
2018-05-02T04:50:22.718Z,57.27
2018-05-02T04:52:51.125Z,57.31
2018-05-02T04:55:19.557Z,56.98
2018-05-02T04:57:47.989Z,56.50
2018-05-02T05:00:16.415Z,57.85
2018-05-02T05:02:44.844Z,57.66
2018-05-02T05:05:13.326Z,56.75
2018-05-02T05:07:41.751Z,57.16
2018-05-02T05:10:10.185Z,56.30
2018-05-02T05:12:38.568Z,57.29
2018-05-02T05:15:07.675Z,55.10
2018-05-02T05:17:36.052Z,56.11
2018-05-02T05:20:04.490Z,56.11
2018-05-02T05:22:32.933Z,55.31
2018-05-02T05:25:01.307Z,55.15
2018-05-02T05:27:29.727Z,54.74
2018-05-02T05:29:58.121Z,54.34
2018-05-02T05:32:26.532Z,52.56
2018-05-02T05:34:54.925Z,54.31
2018-05-02T05:37:23.543Z,51.80
2018-05-02T05:39:51.971Z,48.65
2018-05-02T05:42:21.525Z,45.28
2018-05-02T05:44:49.949Z,43.07
2018-05-02T05:47:18.369Z,42.81
2018-05-02T05:49:46.862Z,41.64
2018-05-02T05:52:15.282Z,41.19
2018-05-02T05:54:43.728Z,41.40
2018-05-02T05:57:12.208Z,43.08
2018-05-02T05:59:40.606Z,41.66
2018-05-02T06:02:09.106Z,38.49
2018-05-02T06:04:37.563Z,38.22
2018-05-02T06:07:05.953Z,38.05
2018-05-02T06:09:34.358Z,38.39
2018-05-02T06:12:02.770Z,39.70
2018-05-02T06:14:31.389Z,38.14
2018-05-02T06:16:59.806Z,35.88
2018-05-02T06:19:28.232Z,34.78
2018-05-02T06:21:56.679Z,36.34
2018-05-02T06:24:25.112Z,34.29
2018-05-02T06:26:53.573Z,34.16
2018-05-02T06:29:22.993Z,33.48
2018-05-02T06:31:51.522Z,33.50
2018-05-02T06:34:19.854Z,33.04
2018-05-02T06:36:48.265Z,31.50
2018-05-02T06:39:16.661Z,31.42
2018-05-02T06:41:45.062Z,30.89
2018-05-02T06:44:13.520Z,29.62
2018-05-02T06:46:41.904Z,29.09
2018-05-02T06:49:10.379Z,29.73
2018-05-02T06:51:38.834Z,29.38
2018-05-02T06:54:08.029Z,30.62
2018-05-02T06:56:36.425Z,31.36
2018-05-02T06:59:04.956Z,31.40
2018-05-02T07:01:33.325Z,30.75
2018-05-02T07:04:01.709Z,32.29
2018-05-02T07:06:30.116Z,33.88
2018-05-02T07:08:58.734Z,33.35
2018-05-02T07:11:27.189Z,33.16
2018-05-02T07:13:56.160Z,34.02
2018-05-02T07:16:25.402Z,32.79
2018-05-02T07:18:53.906Z,32.45
2018-05-02T07:21:22.312Z,32.98
2018-05-02T07:23:50.699Z,32.30
2018-05-02T07:26:19.113Z,30.40
2018-05-02T07:28:47.484Z,30.00
2018-05-02T07:31:15.881Z,30.85
2018-05-02T07:33:44.381Z,30.78
2018-05-02T07:36:12.886Z,29.54
2018-05-02T07:38:41.336Z,30.30
2018-05-02T07:41:09.760Z,28.74
2018-05-02T07:43:38.189Z,29.54
2018-05-02T07:46:06.601Z,27.53
2018-05-02T07:48:35.844Z,30.16
2018-05-02T07:51:04.264Z,30.70
2018-05-02T07:53:32.689Z,29.02
2018-05-02T07:56:01.091Z,28.15
2018-05-02T07:58:29.552Z,28.66
2018-05-02T08:00:57.971Z,26.84
2018-05-02T08:03:26.389Z,28.39
2018-05-02T08:05:54.868Z,27.07
2018-05-02T08:08:23.281Z,27.58
2018-05-02T08:10:51.732Z,25.74
2018-05-02T08:13:20.194Z,24.16
2018-05-02T08:15:48.614Z,23.23
2018-05-02T08:18:17.011Z,23.05
2018-05-02T08:20:45.498Z,22.51
2018-05-02T08:23:13.886Z,21.83
2018-05-02T08:25:42.294Z,22.58
2018-05-02T08:28:10.737Z,22.37
2018-05-02T08:30:39.199Z,22.58
2018-05-02T08:33:07.674Z,23.16
2018-05-02T08:35:36.068Z,23.78
2018-05-02T08:38:04.729Z,24.59
2018-05-02T08:40:33.185Z,22.38
2018-05-02T08:45:38.018Z,23.79
2018-05-02T08:48:12.085Z,23.02
2018-05-02T08:50:40.966Z,23.49
2018-05-02T08:53:09.697Z,21.55
2018-05-02T08:55:38.220Z,20.51
2018-05-02T08:58:06.719Z,20.39
2018-05-02T09:00:35.225Z,21.56
2018-05-02T09:03:03.643Z,21.93
2018-05-02T09:05:32.259Z,19.94
2018-05-02T09:08:00.705Z,19.42
2018-05-02T09:10:29.143Z,20.83
2018-05-02T09:12:57.583Z,19.78
2018-05-02T09:15:26.511Z,19.29
2018-05-02T09:17:54.952Z,19.21
2018-05-02T09:20:23.348Z,20.18
2018-05-02T09:22:51.722Z,20.17
2018-05-02T09:25:20.120Z,20.07
2018-05-02T09:27:48.597Z,20.20
2018-05-02T09:30:16.982Z,20.21
2018-05-02T09:32:45.393Z,21.90
2018-05-02T09:35:13.854Z,22.78
2018-05-02T09:37:44.923Z,23.29
2018-05-02T09:40:14.877Z,22.92
2018-05-02T09:42:43.342Z,22.33
2018-05-02T09:45:11.714Z,22.49
2018-05-02T09:47:40.943Z,23.96
2018-05-02T09:50:09.297Z,23.07
2018-05-02T09:52:37.704Z,22.54
2018-05-02T09:55:06.092Z,22.69
2018-05-02T09:57:34.546Z,23.79
2018-05-02T10:00:02.960Z,23.07
2018-05-02T10:02:31.327Z,23.92
2018-05-02T10:04:59.767Z,24.03
2018-05-02T10:07:28.190Z,23.11
2018-05-02T10:09:56.534Z,23.90
2018-05-02T10:12:24.928Z,23.43
2018-05-02T10:14:54.162Z,24.26
2018-05-02T10:17:22.615Z,24.71
2018-05-02T10:19:51.065Z,24.52
2018-05-02T10:22:19.543Z,24.22
2018-05-02T10:24:48.036Z,24.63
2018-05-02T10:27:16.489Z,24.87
2018-05-02T10:29:44.977Z,25.36
2018-05-02T10:32:13.583Z,27.33
2018-05-02T10:34:41.974Z,25.60
2018-05-02T10:37:10.462Z,25.45
2018-05-02T10:39:38.904Z,25.06
2018-05-02T10:42:07.318Z,24.69
2018-05-02T10:44:35.790Z,25.54
2018-05-02T10:47:04.219Z,25.35
2018-05-02T10:49:32.770Z,25.29
2018-05-02T10:52:01.282Z,26.96
2018-05-02T10:54:29.701Z,27.13
2018-05-02T10:56:58.178Z,26.50
2018-05-02T10:59:26.601Z,27.48
2018-05-02T11:01:54.985Z,26.89
2018-05-02T11:04:23.486Z,28.74
2018-05-02T11:06:51.891Z,26.98
2018-05-02T11:09:20.281Z,27.64
2018-05-02T11:11:48.720Z,27.74
2018-05-02T11:14:17.148Z,27.67
2018-05-02T11:16:45.560Z,27.37
2018-05-02T11:19:14.041Z,26.78
2018-05-02T11:21:42.466Z,26.19
2018-05-02T11:24:10.878Z,26.71
2018-05-02T11:26:39.367Z,24.88
2018-05-02T11:29:07.857Z,25.34
2018-05-02T11:31:36.334Z,24.87
2018-05-02T11:34:04.724Z,25.82
2018-05-02T11:36:33.124Z,25.98
2018-05-02T11:39:01.609Z,27.21
2018-05-02T11:41:36.214Z,27.48
2018-05-02T11:44:05.474Z,27.37
2018-05-02T11:46:33.881Z,27.31
2018-05-02T11:49:02.279Z,26.47
2018-05-02T11:51:30.693Z,25.53
2018-05-02T11:53:59.115Z,25.39
2018-05-02T11:56:27.549Z,25.47
2018-05-02T11:58:55.964Z,24.63
2018-05-02T12:01:24.369Z,25.73
2018-05-02T12:03:52.761Z,26.06
2018-05-02T12:06:21.207Z,26.87
2018-05-02T12:08:49.796Z,25.74
2018-05-02T12:11:18.179Z,26.94
2018-05-02T12:13:46.764Z,26.20
2018-05-02T12:16:15.377Z,26.48
2018-05-02T12:18:43.747Z,25.49
2018-05-02T12:21:12.105Z,26.24
2018-05-02T12:23:40.640Z,25.67
2018-05-02T12:26:09.106Z,26.31
2018-05-02T12:28:37.741Z,26.55
2018-05-02T12:31:06.173Z,26.57
2018-05-02T12:33:34.684Z,27.37
2018-05-02T12:36:03.140Z,29.03
2018-05-02T12:38:31.625Z,28.11
2018-05-02T12:41:00.069Z,27.86
2018-05-02T12:43:28.692Z,28.36
2018-05-02T12:45:57.331Z,27.96
2018-05-02T12:48:25.794Z,28.49
2018-05-02T12:50:54.277Z,27.72
2018-05-02T12:53:22.722Z,28.00
2018-05-02T12:55:51.215Z,28.13
2018-05-02T12:58:19.785Z,26.97
2018-05-02T13:00:48.327Z,29.50
2018-05-02T13:03:17.317Z,27.69
2018-05-02T13:05:46.026Z,27.66
2018-05-02T13:08:14.584Z,28.21
2018-05-02T13:10:43.152Z,27.40
2018-05-02T13:13:14.403Z,28.78
2018-05-02T13:15:42.915Z,27.96
2018-05-02T13:18:13.006Z,27.65
2018-05-02T13:20:41.488Z,28.74
2018-05-02T13:23:10.182Z,27.97
2018-05-02T13:25:38.601Z,27.87
2018-05-02T13:28:07.016Z,28.81
2018-05-02T13:33:09.769Z,28.05
2018-05-02T13:35:38.966Z,28.30
2018-05-02T13:38:07.397Z,27.86
2018-05-02T13:40:35.857Z,27.83
2018-05-02T13:43:04.354Z,29.22
2018-05-02T13:45:32.863Z,28.07
2018-05-02T13:48:01.353Z,27.99
2018-05-02T13:50:29.804Z,28.17
2018-05-02T13:52:58.255Z,29.35
2018-05-02T13:55:26.687Z,30.31
2018-05-02T13:57:55.304Z,29.20
2018-05-02T14:00:23.778Z,29.30
2018-05-02T14:02:52.243Z,29.00
2018-05-02T14:05:20.704Z,29.13
2018-05-02T14:07:49.264Z,27.75
2018-05-02T14:10:17.726Z,28.34
2018-05-02T14:12:46.218Z,27.25
2018-05-02T14:15:14.726Z,27.37
2018-05-02T14:17:43.144Z,28.57
2018-05-02T14:20:11.608Z,28.49
2018-05-02T14:22:40.015Z,28.36
2018-05-02T14:25:08.428Z,27.90
2018-05-02T14:27:36.874Z,28.49
2018-05-02T14:30:05.283Z,28.59
2018-05-02T14:32:33.753Z,28.42
2018-05-02T14:35:02.205Z,29.01
2018-05-02T14:37:30.614Z,28.10
2018-05-02T14:39:59.057Z,28.67
2018-05-02T14:42:27.473Z,28.61
2018-05-02T14:44:55.893Z,28.80
2018-05-02T14:47:24.326Z,28.70
2018-05-02T14:49:52.725Z,27.63
2018-05-02T14:52:21.107Z,29.37
2018-05-02T14:54:49.535Z,29.11
2018-05-02T14:57:17.995Z,29.01
2018-05-02T14:59:46.485Z,30.11
2018-05-02T15:02:14.927Z,30.38
2018-05-02T15:04:43.258Z,29.27
2018-05-02T15:07:11.809Z,28.70
2018-05-02T15:09:40.187Z,29.32
2018-05-02T15:12:31.136Z,28.71
2018-05-02T15:14:59.515Z,27.96
2018-05-02T15:17:27.881Z,28.87
2018-05-02T15:19:56.343Z,28.02
2018-05-02T15:22:24.754Z,29.15
2018-05-02T15:24:53.127Z,29.28
2018-05-02T15:27:21.886Z,29.33
2018-05-02T15:29:50.318Z,29.01
2018-05-02T15:32:18.894Z,28.79
2018-05-02T15:34:47.348Z,29.15
2018-05-02T15:37:15.773Z,28.83
2018-05-02T15:39:45.235Z,29.31
2018-05-02T15:42:13.712Z,28.99
2018-05-02T15:44:42.192Z,29.39
2018-05-02T15:47:10.615Z,30.36
2018-05-02T15:49:39.071Z,30.33
2018-05-02T15:52:07.520Z,30.69
2018-05-02T15:54:46.282Z,29.99
2018-05-02T15:57:15.681Z,30.28
2018-05-02T15:59:44.172Z,30.70
2018-05-02T16:02:12.582Z,30.03
2018-05-02T16:04:45.976Z,29.57
2018-05-02T16:07:14.460Z,29.98
2018-05-02T16:09:42.860Z,30.07
2018-05-02T16:12:11.264Z,28.96
2018-05-02T16:14:39.664Z,29.64
2018-05-02T16:17:09.055Z,29.91
2018-05-02T16:19:37.594Z,30.27
2018-05-02T16:22:06.017Z,30.89
2018-05-02T16:24:34.393Z,29.43
2018-05-02T16:27:02.815Z,29.87
2018-05-02T16:29:31.252Z,29.72
2018-05-02T16:31:59.800Z,29.57
2018-05-02T16:34:28.225Z,30.24
2018-05-02T16:36:56.610Z,30.70
2018-05-02T16:39:25.103Z,30.84
2018-05-02T16:41:53.534Z,31.33
2018-05-02T16:44:22.056Z,30.72
2018-05-02T16:46:50.875Z,30.64
2018-05-02T16:49:19.258Z,31.24
2018-05-02T16:51:47.818Z,31.20
2018-05-02T16:54:16.261Z,30.99
2018-05-02T16:56:44.688Z,31.15
2018-05-02T16:59:13.063Z,30.88
2018-05-02T17:01:41.436Z,30.78
2018-05-02T17:04:13.675Z,31.80
2018-05-02T17:06:43.002Z,31.58
2018-05-02T17:09:11.437Z,31.77
2018-05-02T17:11:41.115Z,31.78
2018-05-02T17:14:10.604Z,31.91
2018-05-02T17:16:42.325Z,31.83
2018-05-02T17:19:11.337Z,31.68
2018-05-02T17:21:39.768Z,31.47
2018-05-02T17:24:08.601Z,31.45
2018-05-02T17:26:39.363Z,31.37
2018-05-02T17:29:07.861Z,33.03
2018-05-02T17:31:36.376Z,32.31
2018-05-02T17:34:04.801Z,32.06
2018-05-02T17:36:34.823Z,33.38
2018-05-02T17:39:03.241Z,33.01
2018-05-02T17:41:31.667Z,33.38
2018-05-02T17:44:00.091Z,33.55
2018-05-02T17:46:28.716Z,33.72
2018-05-02T17:48:57.646Z,32.29
2018-05-02T17:51:26.109Z,32.97
2018-05-02T17:53:54.625Z,32.40
2018-05-02T17:56:23.054Z,32.50
2018-05-02T17:58:52.977Z,32.56
2018-05-02T18:01:21.430Z,33.21
2018-05-02T18:03:49.922Z,33.93
2018-05-02T18:06:18.398Z,33.48
2018-05-02T18:08:46.885Z,33.58
2018-05-02T18:11:15.315Z,34.32
2018-05-02T18:13:43.816Z,35.30
2018-05-02T18:16:12.433Z,36.04
2018-05-02T18:18:41.725Z,36.32
2018-05-02T18:21:10.198Z,36.00
2018-05-02T18:23:38.637Z,36.06
2018-05-02T18:26:07.180Z,36.58
2018-05-02T18:28:35.658Z,36.23
2018-05-02T18:31:04.068Z,37.39
2018-05-02T18:33:32.976Z,37.57
2018-05-02T18:36:01.410Z,36.89
2018-05-02T18:38:29.917Z,37.72
2018-05-02T18:40:58.337Z,37.02
2018-05-02T18:43:26.791Z,37.06
2018-05-02T18:45:57.072Z,37.15
2018-05-02T18:48:25.415Z,36.75
2018-05-02T18:50:53.774Z,36.07
2018-05-02T18:53:22.313Z,36.11
2018-05-02T18:55:50.746Z,36.57
2018-05-02T18:58:19.164Z,35.65
2018-05-02T19:00:47.558Z,34.99
2018-05-02T19:03:16.591Z,35.27
2018-05-02T19:05:44.984Z,35.08
2018-05-02T19:08:13.416Z,35.60
2018-05-02T19:10:41.797Z,36.00
2018-05-02T19:13:10.204Z,35.77
2018-05-02T19:15:38.573Z,36.26
2018-05-02T19:18:12.454Z,36.07
2018-05-02T19:20:40.856Z,35.50
2018-05-02T19:23:09.247Z,37.03
2018-05-02T19:25:43.253Z,37.34
2018-05-02T19:28:13.201Z,37.38
2018-05-02T19:30:41.928Z,36.97
2018-05-02T19:33:20.933Z,37.58
2018-05-02T19:35:49.320Z,38.07
2018-05-02T19:38:17.731Z,38.30
2018-05-02T19:40:51.806Z,38.48
2018-05-02T19:43:25.742Z,39.13
2018-05-02T19:45:54.119Z,39.16
2018-05-02T19:48:22.568Z,39.03
2018-05-02T19:50:56.817Z,39.50
2018-05-02T19:53:25.270Z,39.21
2018-05-02T19:55:53.681Z,39.60
2018-05-02T19:58:22.461Z,40.30
2018-05-02T20:00:56.515Z,39.61
2018-05-02T20:03:24.920Z,39.52
2018-05-02T20:05:53.361Z,39.53
2018-05-02T20:08:28.077Z,39.73
2018-05-02T20:11:01.997Z,40.25
2018-05-02T20:13:41.097Z,40.76
2018-05-02T20:16:09.621Z,41.24
2018-05-02T20:18:38.248Z,41.71
2018-05-02T20:21:08.698Z,42.04
2018-05-02T20:23:37.300Z,42.90
2018-05-02T20:26:05.756Z,43.04
2018-05-02T20:28:34.229Z,42.29
2018-05-02T20:31:03.548Z,42.57
2018-05-02T20:33:34.166Z,43.62
2018-05-02T20:36:02.817Z,42.92
2018-05-02T20:38:31.469Z,44.10
2018-05-02T20:40:59.869Z,44.26
2018-05-02T20:43:28.366Z,43.69
2018-05-02T20:45:56.807Z,44.45
2018-05-02T20:48:25.207Z,44.08
2018-05-02T20:50:54.485Z,45.16
2018-05-02T20:53:22.893Z,45.78
2018-05-02T20:55:51.302Z,44.30
2018-05-02T20:58:19.691Z,44.72
2018-05-02T21:00:48.095Z,45.42
2018-05-02T21:03:16.590Z,44.70
2018-05-02T21:05:44.991Z,45.63
2018-05-02T21:08:13.455Z,46.19
2018-05-02T21:10:41.912Z,46.04
2018-05-02T21:13:10.297Z,45.39
2018-05-02T21:15:38.742Z,45.23
2018-05-02T21:18:07.170Z,45.20
2018-05-02T21:20:35.704Z,46.06
2018-05-02T21:23:04.096Z,45.80
2018-05-02T21:25:32.508Z,46.50
2018-05-02T21:28:00.944Z,46.47
2018-05-02T21:30:29.409Z,46.48
2018-05-02T21:32:57.770Z,46.12
2018-05-02T21:35:26.160Z,47.00
2018-05-02T21:37:54.523Z,46.71
2018-05-02T21:40:22.901Z,45.91
2018-05-02T21:42:51.349Z,46.95
2018-05-02T21:45:19.707Z,47.03
2018-05-02T21:47:48.140Z,47.25
2018-05-02T21:50:16.545Z,47.35
2018-05-02T21:52:44.958Z,46.33
2018-05-02T21:55:13.304Z,47.49
2018-05-02T21:57:41.753Z,46.84
2018-05-02T22:00:10.140Z,47.47
2018-05-02T22:02:38.537Z,48.25
2018-05-02T22:05:06.913Z,48.72
2018-05-02T22:07:35.375Z,48.03
2018-05-02T22:10:03.800Z,48.24
2018-05-02T22:12:32.192Z,48.48
2018-05-02T22:15:00.596Z,47.84
2018-05-02T22:17:29.016Z,48.80
2018-05-02T22:19:57.485Z,49.32
2018-05-02T22:22:27.927Z,47.53
2018-05-02T22:24:56.517Z,47.81
2018-05-02T22:27:24.981Z,48.59
2018-05-02T22:29:53.404Z,47.91
2018-05-02T22:32:21.845Z,48.77
2018-05-02T22:34:50.288Z,48.58
2018-05-02T22:37:18.787Z,48.44
2018-05-02T22:39:47.172Z,48.27
2018-05-02T22:42:15.650Z,48.26
2018-05-02T22:44:44.124Z,48.54
2018-05-02T22:47:12.559Z,48.81
2018-05-02T22:49:40.942Z,47.98
2018-05-02T22:52:09.295Z,48.30
2018-05-02T22:54:37.697Z,47.75
2018-05-02T22:57:06.101Z,48.13
2018-05-02T22:59:34.560Z,48.16
2018-05-02T23:02:02.981Z,48.51
2018-05-02T23:04:31.406Z,48.41
2018-05-02T23:06:59.763Z,48.14
2018-05-02T23:09:28.112Z,48.05
2018-05-02T23:11:56.496Z,47.99
2018-05-02T23:14:24.930Z,47.53
2018-05-02T23:16:53.284Z,47.34
2018-05-02T23:19:21.724Z,47.28
2018-05-02T23:21:50.076Z,47.30
2018-05-02T23:24:18.425Z,47.06
2018-05-02T23:26:46.864Z,47.04
2018-05-02T23:29:15.256Z,46.28
2018-05-02T23:31:43.609Z,46.64
2018-05-02T23:34:12.120Z,45.61
2018-05-02T23:36:40.504Z,45.77
2018-05-02T23:39:08.904Z,46.01
2018-05-02T23:41:37.277Z,45.67
2018-05-02T23:44:05.742Z,45.96
2018-05-02T23:46:34.208Z,45.90
2018-05-02T23:49:02.539Z,45.89
2018-05-02T23:51:30.903Z,46.66
2018-05-02T23:53:59.288Z,46.00
2018-05-02T23:56:27.649Z,46.15
2018-05-02T23:58:55.984Z,46.65
